Time;durP1;ratioP1;P1;durP2;ratioP2;P2;SDS_P1;SDS_P2;PMS_P1;PMS_P2;Temp;Humidity;BMP_temperature;BMP_pressure;BME280_temperature;BME280_humidity;BME280_pressure;Samples;Min_cycle;Max_cycle;Signal;HPM_P1;HPM_P2
2023/01/29 00:00:09;;;;;;;;;;;2.90;99.90;3.50;100368.00;;;;346072;28;83378;-84
2023/01/29 00:00:21;;;;;;;;;;;2.90;99.90;3.50;100363.00;;;;345727;28;88676;-85
2023/01/29 00:00:33;;;;;;;;;;;2.90;99.90;3.50;100366.00;;;;346059;28;83344;-84
2023/01/29 00:00:45;;;;;;;;;;;2.90;99.90;3.50;100357.00;;;;345584;28;92369;-85
2023/01/29 00:01:10;;;;;;;;;;;2.90;99.90;3.40;100366.00;;;;346004;28;83871;-84
2023/01/29 00:01:21;;;;;;;;;;;2.90;99.90;3.50;100365.00;;;;344393;28;91451;-84
2023/01/29 00:01:33;;;;;;;;;;;2.90;99.90;3.50;100367.00;;;;344712;28;83409;-84
2023/01/29 00:01:45;;;;;;;;;;;2.90;99.90;3.50;100362.00;;;;345556;28;89141;-85
2023/01/29 00:01:57;;;;;;;;;;;2.90;99.90;3.40;100368.00;;;;344729;28;83320;-85
2023/01/29 00:02:09;;;;;;;;;;;2.90;99.90;3.40;100365.00;;;;342950;28;89408;-84
2023/01/29 00:02:21;;;;;;;;;;;2.90;99.90;3.50;100356.00;;;;343158;28;84026;-84
2023/01/29 00:02:32;;;;;;;;;;;2.90;99.90;3.50;100357.00;;;;345742;28;89509;-84
2023/01/29 00:02:44;;;;;;;;;;;2.90;99.90;3.40;100369.00;;;;347018;28;83497;-84
2023/01/29 00:02:56;;;;;;;;;;;2.90;99.90;3.50;100357.00;;;;347152;28;88812;-84
2023/01/29 00:03:08;;;;;;;;;;;2.90;99.90;3.40;100360.00;;;;345952;28;83269;-84
2023/01/29 00:03:20;;;;;;;;;;;2.90;99.90;3.40;100358.00;;;;345656;28;92130;-85
2023/01/29 00:03:32;;;;;;;;;;;2.90;99.90;3.40;100359.00;;;;346134;28;83115;-84
2023/01/29 00:03:44;;;;;;;;;;;2.90;99.90;3.40;100362.00;;;;345387;28;91969;-84
2023/01/29 00:03:56;;;;;;;;;;;2.90;99.90;3.50;100363.00;;;;344678;28;83499;-85
2023/01/29 00:04:08;;;;;;;;;;;2.90;99.90;3.50;100358.00;;;;346582;28;90314;-84
2023/01/29 00:04:19;;;;;;;;;;;2.90;99.90;3.50;100368.00;;;;348799;27;83499;-84
2023/01/29 00:04:31;;;;;;;;;;;2.90;99.90;3.40;100364.00;;;;346532;28;88746;-84
2023/01/29 00:04:43;;;;;;;;;;;2.90;99.90;3.50;100365.00;;;;347579;28;82217;-84
2023/01/29 00:04:55;;;;;;;;;;;2.90;99.90;3.50;100362.00;;;;347146;28;89456;-84
2023/01/29 00:05:09;;;;;;;;;;;2.90;99.90;3.50;100356.00;;;;347395;28;83381;-84
2023/01/29 00:05:37;;;;;;;;;;;2.90;99.90;3.60;100354.00;;;;345728;28;89300;-84
2023/01/29 00:05:49;;;;;;;;;;;2.90;99.90;3.50;100355.00;;;;347341;28;83465;-84
2023/01/29 00:06:05;;;;;;;;;;;2.90;99.90;3.60;100354.00;;;;347969;27;89062;-84
2023/01/29 00:06:17;;;;;;;;;;;2.90;99.90;3.50;100352.00;;;;345947;28;83488;-84
2023/01/29 00:06:29;;;;;;;;;;;2.90;99.90;3.40;100363.00;;;;346927;28;89879;-84
2023/01/29 00:06:41;;;;;;;;;;;2.90;99.90;3.40;100357.00;;;;346892;28;82437;-84
2023/01/29 00:06:53;;;;;;;;;;;2.90;99.90;3.40;100361.00;;;;345786;28;91234;-84
2023/01/29 00:07:04;;;;;;;;;;;2.90;99.90;3.40;100357.00;;;;345500;28;83576;-84
2023/01/29 00:07:16;;;;;;;;;;;2.90;99.90;3.40;100363.00;;;;345622;28;89848;-85
2023/01/29 00:07:29;;;;;;;;;;;2.90;99.90;3.50;100346.00;;;;347527;28;83457;-85
2023/01/29 00:07:40;;;;;;;;;;;2.90;99.90;3.40;100358.00;;;;348526;27;89323;-84
2023/01/29 00:07:52;;;;;;;;;;;2.90;99.90;3.50;100356.00;;;;348888;27;83446;-85
2023/01/29 00:08:04;;;;;;;;;;;2.90;99.90;3.50;100355.00;;;;346689;27;88758;-85
2023/01/29 00:08:16;;;;;;;;;;;2.90;99.90;3.50;100357.00;;;;346012;28;83223;-85
2023/01/29 00:08:29;;;;;;;;;;;2.90;99.90;3.50;100360.00;;;;346146;28;92978;-84
2023/01/29 00:08:40;;;;;;;;;;;2.90;99.90;3.50;100353.00;;;;347548;28;83441;-85
2023/01/29 00:08:52;;;;;;;;;;;2.90;99.90;3.50;100356.00;;;;346990;28;89162;-85
2023/01/29 00:09:04;;;;;;;;;;;2.90;99.90;3.50;100351.00;;;;347290;28;83489;-85
2023/01/29 00:09:16;;;;;;;;;;;2.90;99.90;3.50;100359.00;;;;347235;27;89109;-84
2023/01/29 00:09:27;;;;;;;;;;;2.90;99.90;3.40;100358.00;;;;347476;28;83534;-85
2023/01/29 00:09:39;;;;;;;;;;;2.90;99.90;3.50;100362.00;;;;345690;28;91383;-85
2023/01/29 00:09:51;;;;;;;;;;;2.90;99.90;3.60;100366.00;;;;346703;27;83597;-84
2023/01/29 00:10:03;;;;;;;;;;;2.90;99.90;3.50;100357.00;;;;345451;28;91978;-84
2023/01/29 00:10:15;;;;;;;;;;;2.90;99.90;3.50;100361.00;;;;347504;28;83240;-84
2023/01/29 00:10:27;;;;;;;;;;;2.90;99.90;3.50;100368.00;;;;346925;28;89860;-84
2023/01/29 00:10:39;;;;;;;;;;;2.90;99.90;3.50;100365.00;;;;347352;28;83354;-84
2023/01/29 00:10:51;;;;;;;;;;;2.90;99.90;3.50;100358.00;;;;346782;28;91084;-83
2023/01/29 00:11:06;;;;;;;;;;;2.90;99.90;3.50;100365.00;;;;347457;28;82506;-84
2023/01/29 00:11:19;;;;;;;;;;;2.90;99.90;3.50;100366.00;;;;347148;28;87956;-85
2023/01/29 00:11:31;;;;;;;;;;;2.90;99.90;3.50;100360.00;;;;343995;28;82530;-84
2023/01/29 00:11:42;;;;;;;;;;;2.90;99.90;3.40;100356.00;;;;346940;28;89451;-84
2023/01/29 00:11:54;;;;;;;;;;;2.90;99.90;3.50;100356.00;;;;346278;28;85412;-83
2023/01/29 00:12:07;;;;;;;;;;;2.90;99.90;3.50;100359.00;;;;346477;28;89212;-84
2023/01/29 00:12:19;;;;;;;;;;;2.90;99.90;3.50;100348.00;;;;347571;28;82404;-84
2023/01/29 00:12:31;;;;;;;;;;;2.90;99.90;3.60;100367.00;;;;346899;28;90484;-84
2023/01/29 00:12:43;;;;;;;;;;;2.90;99.90;3.60;100369.00;;;;347503;28;83492;-84
2023/01/29 00:12:54;;;;;;;;;;;2.90;99.90;3.60;100357.00;;;;346567;28;89099;-84
2023/01/29 00:13:06;;;;;;;;;;;2.90;99.90;3.50;100362.00;;;;347135;27;83554;-83
2023/01/29 00:13:18;;;;;;;;;;;2.90;99.90;3.50;100362.00;;;;346543;28;89138;-84
2023/01/29 00:13:30;;;;;;;;;;;2.90;99.90;3.50;100357.00;;;;348232;27;83493;-84
2023/01/29 00:13:42;;;;;;;;;;;2.90;99.90;3.50;100362.00;;;;347570;27;87871;-84
2023/01/29 00:13:54;;;;;;;;;;;2.90;99.90;3.50;100367.00;;;;344575;28;83308;-84
2023/01/29 00:14:06;;;;;;;;;;;2.90;99.90;3.50;100366.00;;;;344383;28;87800;-85
2023/01/29 00:14:18;;;;;;;;;;;2.90;99.90;3.50;100358.00;;;;345560;28;83544;-84
2023/01/29 00:14:30;;;;;;;;;;;2.90;99.90;3.50;100356.00;;;;346301;28;90201;-84
2023/01/29 00:14:41;;;;;;;;;;;2.90;99.90;3.50;100356.00;;;;346272;28;83548;-83
2023/01/29 00:14:53;;;;;;;;;;;2.90;99.90;3.50;100367.00;;;;345650;28;88309;-84
2023/01/29 00:15:06;;;;;;;;;;;2.90;99.90;3.50;100360.00;;;;346540;27;83418;-84
2023/01/29 00:15:17;;;;;;;;;;;2.90;99.90;3.50;100357.00;;;;345696;28;89087;-84
2023/01/29 00:15:29;;;;;;;;;;;2.90;99.90;3.50;100356.00;;;;347595;28;82471;-85
2023/01/29 00:15:41;;;;;;;;;;;2.90;99.90;3.40;100362.00;;;;347365;27;89099;-84
2023/01/29 00:15:57;;;;;;;;;;;2.90;99.90;3.50;100347.00;;;;348501;27;83882;-84
2023/01/29 00:16:08;;;;;;;;;;;2.90;99.90;3.50;100368.00;;;;347839;27;91433;-84
2023/01/29 00:16:20;;;;;;;;;;;2.90;99.90;3.50;100357.00;;;;347142;28;82392;-84
2023/01/29 00:16:32;;;;;;;;;;;2.90;99.90;3.50;100360.00;;;;346712;28;90079;-84
2023/01/29 00:16:44;;;;;;;;;;;2.90;99.90;3.60;100360.00;;;;346930;28;83646;-84
2023/01/29 00:16:55;;;;;;;;;;;2.90;99.90;3.50;100353.00;;;;345533;28;92284;-84
2023/01/29 00:17:07;;;;;;;;;;;2.90;99.90;3.50;100355.00;;;;347379;28;82335;-84
2023/01/29 00:17:19;;;;;;;;;;;2.90;99.90;3.50;100355.00;;;;347139;28;89297;-84
2023/01/29 00:17:31;;;;;;;;;;;2.90;99.90;3.50;100351.00;;;;347047;28;82380;-84
2023/01/29 00:17:43;;;;;;;;;;;2.90;99.90;3.50;100350.00;;;;345000;28;92127;-84
2023/01/29 00:17:55;;;;;;;;;;;2.90;99.90;3.50;100360.00;;;;343666;28;82666;-83
2023/01/29 00:18:07;;;;;;;;;;;2.90;99.90;3.40;100361.00;;;;346778;28;88088;-84
2023/01/29 00:18:19;;;;;;;;;;;2.90;99.90;3.40;100355.00;;;;347518;28;83308;-85
2023/01/29 00:18:30;;;;;;;;;;;2.90;99.90;3.40;100356.00;;;;346854;28;93392;-84
2023/01/29 00:18:42;;;;;;;;;;;2.90;99.90;3.40;100362.00;;;;348864;27;83180;-84
2023/01/29 00:18:54;;;;;;;;;;;2.90;99.90;3.40;100359.00;;;;347451;27;89516;-84
2023/01/29 00:19:06;;;;;;;;;;;2.90;99.90;3.40;100357.00;;;;347383;28;83536;-84
2023/01/29 00:19:18;;;;;;;;;;;2.90;99.90;3.40;100356.00;;;;347130;28;89087;-85
2023/01/29 00:19:30;;;;;;;;;;;2.90;99.90;3.30;100365.00;;;;344675;28;83581;-85
2023/01/29 00:19:42;;;;;;;;;;;2.90;99.90;3.40;100361.00;;;;347842;27;92492;-85
2023/01/29 00:19:53;;;;;;;;;;;2.80;99.90;3.40;100364.00;;;;348881;27;83461;-84
2023/01/29 00:20:05;;;;;;;;;;;2.90;99.90;3.40;100360.00;;;;347044;28;91311;-84
2023/01/29 00:20:17;;;;;;;;;;;2.80;99.90;3.40;100357.00;;;;344713;28;83423;-85
2023/01/29 00:20:30;;;;;;;;;;;2.90;99.90;3.50;100357.00;;;;345290;28;89846;-84
2023/01/29 00:20:42;;;;;;;;;;;2.80;99.90;3.40;100366.00;;;;343393;28;83475;-84
2023/01/29 00:20:54;;;;;;;;;;;2.80;99.90;3.40;100357.00;;;;344102;28;89629;-83
2023/01/29 00:21:10;;;;;;;;;;;2.90;99.90;3.50;100365.00;;;;346799;28;83396;-84
2023/01/29 00:21:22;;;;;;;;;;;2.80;99.90;3.50;100349.00;;;;345965;27;89473;-84
2023/01/29 00:21:34;;;;;;;;;;;2.90;99.90;3.40;100357.00;;;;346003;28;83486;-85
2023/01/29 00:21:46;;;;;;;;;;;2.90;99.90;3.50;100356.00;;;;344270;28;89151;-85
2023/01/29 00:21:57;;;;;;;;;;;2.90;99.90;3.50;100362.00;;;;344847;28;83619;-84
2023/01/29 00:22:09;;;;;;;;;;;2.90;99.90;3.40;100363.00;;;;345557;28;91287;-85
2023/01/29 00:22:21;;;;;;;;;;;2.80;99.90;3.50;100357.00;;;;346109;28;83399;-84
2023/01/29 00:22:33;;;;;;;;;;;2.90;99.90;3.40;100360.00;;;;346967;28;89525;-85
2023/01/29 00:22:44;;;;;;;;;;;2.90;99.90;3.40;100359.00;;;;346050;28;83457;-84
2023/01/29 00:22:56;;;;;;;;;;;2.80;99.90;3.40;100365.00;;;;347802;27;89391;-84
2023/01/29 00:23:08;;;;;;;;;;;2.90;99.90;3.40;100360.00;;;;345973;28;83393;-85
2023/01/29 00:23:20;;;;;;;;;;;2.80;99.90;3.40;100365.00;;;;345739;28;90225;-84
2023/01/29 00:23:31;;;;;;;;;;;2.80;99.90;3.40;100354.00;;;;344785;28;82312;-85
2023/01/29 00:23:43;;;;;;;;;;;2.80;99.90;3.40;100357.00;;;;346505;27;92221;-84
2023/01/29 00:23:55;;;;;;;;;;;2.80;99.90;3.40;100355.00;;;;347318;28;82439;-84
2023/01/29 00:24:07;;;;;;;;;;;2.80;99.90;3.40;100353.00;;;;345604;28;91803;-85
2023/01/29 00:24:19;;;;;;;;;;;2.90;99.90;3.40;100356.00;;;;347586;28;83256;-85
2023/01/29 00:24:31;;;;;;;;;;;2.80;99.90;3.40;100361.00;;;;347650;27;90668;-84
2023/01/29 00:24:43;;;;;;;;;;;2.80;99.90;3.40;100358.00;;;;346769;28;82506;-84
2023/01/29 00:24:54;;;;;;;;;;;2.80;99.90;3.40;100362.00;;;;345888;28;91675;-83
2023/01/29 00:25:07;;;;;;;;;;;2.90;99.90;3.40;100355.00;;;;346804;28;83486;-84
2023/01/29 00:25:19;;;;;;;;;;;2.80;99.90;3.50;100359.00;;;;348508;27;89503;-85
2023/01/29 00:25:31;;;;;;;;;;;2.80;99.90;3.50;100355.00;;;;348972;27;83300;-84
2023/01/29 00:25:42;;;;;;;;;;;2.90;99.90;3.50;100358.00;;;;345513;28;92367;-85
2023/01/29 00:25:58;;;;;;;;;;;2.90;99.90;3.50;100358.00;;;;344205;28;82399;-84
2023/01/29 00:26:09;;;;;;;;;;;2.80;99.90;3.40;100356.00;;;;345725;28;88077;-85
2023/01/29 00:26:21;;;;;;;;;;;2.80;99.90;3.50;100351.00;;;;347520;28;83227;-85
2023/01/29 00:26:33;;;;;;;;;;;2.80;99.90;3.50;100350.00;;;;348314;27;90861;-85
2023/01/29 00:26:45;;;;;;;;;;;2.90;99.90;3.50;100363.00;;;;348681;27;83374;-85
2023/01/29 00:26:56;;;;;;;;;;;2.80;99.90;3.50;100354.00;;;;346631;28;88033;-85
2023/01/29 00:27:08;;;;;;;;;;;2.80;99.90;3.50;100356.00;;;;347427;27;83425;-84
2023/01/29 00:27:20;;;;;;;;;;;2.90;99.90;3.60;100353.00;;;;344999;28;91129;-84
2023/01/29 00:27:32;;;;;;;;;;;2.80;99.90;3.60;100365.00;;;;345646;28;83446;-85
2023/01/29 00:27:43;;;;;;;;;;;2.90;99.90;3.60;100366.00;;;;345147;28;88720;-84
2023/01/29 00:27:55;;;;;;;;;;;2.80;99.90;3.60;100359.00;;;;346097;28;83435;-85
2023/01/29 00:28:07;;;;;;;;;;;2.90;99.90;3.60;100357.00;;;;347036;28;88496;-84
2023/01/29 00:28:19;;;;;;;;;;;2.90;99.90;3.50;100360.00;;;;346122;28;83225;-84
2023/01/29 00:28:31;;;;;;;;;;;2.90;99.90;3.50;100362.00;;;;345476;28;89700;-85
2023/01/29 00:28:42;;;;;;;;;;;2.90;99.90;3.50;100357.00;;;;347441;28;83583;-85
2023/01/29 00:28:56;;;;;;;;;;;2.90;99.90;3.50;100358.00;;;;346149;28;88741;-84
2023/01/29 00:29:08;;;;;;;;;;;2.90;99.90;3.60;100354.00;;;;347721;27;83522;-84
2023/01/29 00:29:20;;;;;;;;;;;2.90;99.90;3.60;100360.00;;;;347086;28;89094;-83
2023/01/29 00:29:32;;;;;;;;;;;2.90;99.90;3.60;100356.00;;;;348807;27;83402;-86
2023/01/29 00:30:07;;;;;;;;;;;2.90;99.90;3.60;100358.00;;;;345465;28;92201;-84
2023/01/29 00:30:18;;;;;;;;;;;2.90;99.90;3.40;100359.00;;;;345915;28;83626;-85
2023/01/29 00:30:30;;;;;;;;;;;2.90;99.90;3.50;100360.00;;;;345736;27;92208;-84
2023/01/29 00:30:42;;;;;;;;;;;2.90;99.90;3.50;100353.00;;;;347380;28;83347;-85
2023/01/29 00:30:54;;;;;;;;;;;2.90;99.90;3.50;100365.00;;;;345602;28;89900;-84
2023/01/29 00:31:10;;;;;;;;;;;2.90;99.90;3.50;100355.00;;;;348574;27;82487;-84
2023/01/29 00:31:22;;;;;;;;;;;2.90;99.90;3.50;100353.00;;;;346686;28;92590;-85
2023/01/29 00:31:34;;;;;;;;;;;2.90;99.90;3.60;100350.00;;;;348962;27;83392;-85
2023/01/29 00:31:46;;;;;;;;;;;2.90;99.90;3.60;100362.00;;;;348324;27;89439;-84
2023/01/29 00:31:58;;;;;;;;;;;2.90;99.90;3.60;100360.00;;;;347563;27;83298;-84
2023/01/29 00:32:10;;;;;;;;;;;2.90;99.90;3.60;100356.00;;;;345993;27;91749;-85
2023/01/29 00:32:22;;;;;;;;;;;2.90;99.90;3.60;100357.00;;;;348882;27;83426;-86
2023/01/29 00:32:35;;;;;;;;;;;3.00;99.90;3.60;100355.00;;;;345092;28;92107;-86
2023/01/29 00:32:46;;;;;;;;;;;3.00;99.90;3.60;100352.00;;;;346071;28;83516;-85
2023/01/29 00:32:58;;;;;;;;;;;3.00;99.90;3.50;100345.00;;;;345656;28;90611;-85
2023/01/29 00:33:12;;;;;;;;;;;3.00;99.90;3.50;100361.00;;;;346073;28;83512;-85
2023/01/29 00:33:24;;;;;;;;;;;2.90;99.90;3.60;100351.00;;;;345961;27;89623;-85
2023/01/29 00:33:35;;;;;;;;;;;3.00;99.90;3.60;100354.00;;;;347332;28;83409;-84
2023/01/29 00:33:47;;;;;;;;;;;3.00;99.90;3.60;100357.00;;;;347441;27;92203;-85
2023/01/29 00:33:59;;;;;;;;;;;2.90;99.90;3.60;100349.00;;;;348674;27;83534;-85
2023/01/29 00:34:11;;;;;;;;;;;3.00;99.90;3.60;100347.00;;;;346917;28;92342;-86
2023/01/29 00:34:23;;;;;;;;;;;3.00;99.90;3.60;100358.00;;;;345985;28;83770;-85
2023/01/29 00:34:34;;;;;;;;;;;2.90;99.90;3.60;100351.00;;;;347531;27;89097;-85
2023/01/29 00:34:46;;;;;;;;;;;3.00;99.90;3.60;100355.00;;;;347703;27;82357;-85
2023/01/29 00:34:58;;;;;;;;;;;3.00;99.90;3.50;100358.00;;;;346603;27;92111;-85
2023/01/29 00:35:10;;;;;;;;;;;3.00;99.90;3.50;100350.00;;;;344962;28;83607;-84
2023/01/29 00:35:22;;;;;;;;;;;2.90;99.90;3.50;100354.00;;;;346316;28;89004;-84
2023/01/29 00:35:33;;;;;;;;;;;3.00;99.90;3.40;100356.00;;;;346113;28;82408;-85
2023/01/29 00:35:45;;;;;;;;;;;2.90;99.90;3.40;100359.00;;;;346202;28;88802;-84
2023/01/29 00:35:57;;;;;;;;;;;2.90;99.90;3.40;100359.00;;;;346060;28;83422;-85
2023/01/29 00:36:10;;;;;;;;;;;2.90;99.90;3.50;100355.00;;;;344212;28;92333;-85
2023/01/29 00:36:22;;;;;;;;;;;2.90;99.90;3.50;100351.00;;;;348022;27;83570;-85
2023/01/29 00:36:33;;;;;;;;;;;2.90;99.90;3.40;100362.00;;;;346880;28;88100;-85
2023/01/29 00:36:45;;;;;;;;;;;2.90;99.90;3.40;100359.00;;;;344672;28;83442;-85
2023/01/29 00:37:03;;;;;;;;;;;2.90;99.90;3.50;100359.00;;;;344219;28;90402;-85
2023/01/29 00:37:15;;;;;;;;;;;2.90;99.90;3.40;100355.00;;;;345867;28;82502;-85
2023/01/29 00:37:27;;;;;;;;;;;2.90;99.90;3.40;100364.00;;;;347016;28;92031;-85
2023/01/29 00:37:38;;;;;;;;;;;2.90;99.90;3.40;100352.00;;;;346028;28;83280;-85
2023/01/29 00:37:50;;;;;;;;;;;2.90;99.90;3.40;100352.00;;;;344253;28;89255;-85
2023/01/29 00:38:02;;;;;;;;;;;2.90;99.90;3.40;100362.00;;;;347246;28;82419;-85
2023/01/29 00:38:14;;;;;;;;;;;2.90;99.90;3.40;100361.00;;;;344888;28;92374;-85
2023/01/29 00:38:25;;;;;;;;;;;2.90;99.90;3.40;100358.00;;;;346017;28;82518;-84
2023/01/29 00:38:37;;;;;;;;;;;2.90;99.90;3.40;100353.00;;;;347007;28;89539;-85
2023/01/29 00:38:57;;;;;;;;;;;2.90;99.90;3.40;100360.00;;;;347974;27;83403;-85
2023/01/29 00:39:12;;;;;;;;;;;2.90;99.90;3.50;100348.00;;;;346896;28;90337;-85
2023/01/29 00:39:24;;;;;;;;;;;2.80;99.90;3.50;100352.00;;;;347533;28;82416;-85
2023/01/29 00:39:46;;;;;;;;;;;2.90;99.90;3.40;100361.00;;;;345484;28;91684;-85
2023/01/29 00:39:59;;;;;;;;;;;2.80;99.90;3.40;100356.00;;;;344649;28;83220;-85
2023/01/29 00:40:11;;;;;;;;;;;2.90;99.90;3.50;100347.00;;;;342874;28;89440;-85
2023/01/29 00:40:23;;;;;;;;;;;2.90;99.90;3.50;100349.00;;;;344705;28;83286;-84
2023/01/29 00:44:58;;;;;;;;;;;2.80;99.90;3.40;100352.00;;;;341383;28;90950;-85
2023/01/29 00:45:10;;;;;;;;;;;2.90;99.90;3.40;100356.00;;;;342894;28;83469;-85
2023/01/29 00:45:22;;;;;;;;;;;2.90;99.90;3.50;100352.00;;;;341369;28;91139;-84
2023/01/29 00:45:35;;;;;;;;;;;2.80;99.90;3.50;100347.00;;;;341495;28;82397;-85
2023/01/29 00:45:47;;;;;;;;;;;2.90;99.90;3.50;100354.00;;;;340668;28;89410;-85
2023/01/29 00:45:59;;;;;;;;;;;2.90;99.90;3.50;100340.00;;;;341851;28;83606;-85
2023/01/29 00:46:11;;;;;;;;;;;2.90;99.90;3.50;100346.00;;;;340020;28;91846;-85
2023/01/29 00:46:22;;;;;;;;;;;2.90;99.90;3.50;100352.00;;;;341176;28;82522;-84
2023/01/29 00:46:34;;;;;;;;;;;2.90;99.90;3.50;100354.00;;;;340112;28;91532;-85
2023/01/29 00:46:46;;;;;;;;;;;2.90;99.90;3.50;100349.00;;;;340531;28;83524;-85
2023/01/29 00:46:58;;;;;;;;;;;2.90;99.90;3.60;100356.00;;;;341161;28;89171;-84
2023/01/29 00:47:53;;;;;;;;;;;2.90;99.90;3.60;100346.00;;;;338584;28;89106;-85
2023/01/29 00:48:05;;;;;;;;;;;2.90;99.90;3.60;100349.00;;;;339839;28;83163;-84
2023/01/29 00:48:17;;;;;;;;;;;2.90;99.90;3.60;100343.00;;;;340139;28;91531;-85
2023/01/29 00:48:29;;;;;;;;;;;2.90;99.90;3.60;100350.00;;;;340331;28;83222;-85
2023/01/29 00:48:41;;;;;;;;;;;2.90;99.90;3.50;100352.00;;;;338746;28;91269;-86
2023/01/29 00:48:52;;;;;;;;;;;2.90;99.90;3.50;100344.00;;;;337637;28;83402;-85
2023/01/29 00:49:04;;;;;;;;;;;2.90;99.90;3.60;100349.00;;;;335784;28;91923;-85
2023/01/29 00:49:16;;;;;;;;;;;2.90;99.90;3.50;100353.00;;;;336448;28;83393;-85
2023/01/29 00:49:29;;;;;;;;;;;2.90;99.90;3.50;100344.00;;;;336227;28;89528;-85
2023/01/29 00:49:40;;;;;;;;;;;2.90;99.90;3.40;100351.00;;;;338001;28;83358;-85
2023/01/29 00:49:52;;;;;;;;;;;2.90;99.90;3.40;100356.00;;;;337999;28;92110;-84
2023/01/29 00:50:07;;;;;;;;;;;2.90;99.90;3.50;100350.00;;;;338986;28;83509;-85
2023/01/29 00:50:19;;;;;;;;;;;2.90;99.90;3.40;100357.00;;;;336225;28;89214;-85
2023/01/29 00:50:31;;;;;;;;;;;2.90;99.90;3.50;100349.00;;;;337752;28;82336;-85
2023/01/29 00:50:42;;;;;;;;;;;2.90;99.90;3.50;100354.00;;;;337470;28;90119;-86
2023/01/29 00:50:54;;;;;;;;;;;2.90;99.90;3.50;100344.00;;;;337918;28;83523;-85
2023/01/29 00:51:06;;;;;;;;;;;2.90;99.90;3.50;100348.00;;;;337459;28;89095;-85
2023/01/29 00:51:17;;;;;;;;;;;2.90;99.90;3.50;100357.00;;;;337443;28;83576;-84
2023/01/29 00:51:29;;;;;;;;;;;2.90;99.90;3.50;100355.00;;;;336113;28;90699;-85
2023/01/29 00:51:41;;;;;;;;;;;2.90;99.90;3.50;100352.00;;;;336978;28;83600;-84
2023/01/29 00:52:23;;;;;;;;;;;2.90;99.90;3.50;100353.00;;;;335101;29;83548;-85
2023/01/29 00:52:35;;;;;;;;;;;2.90;99.90;3.50;100355.00;;;;338220;28;89253;-85
2023/01/29 00:52:48;;;;;;;;;;;2.90;99.90;3.50;100354.00;;;;340091;28;83405;-86
2023/01/29 00:53:00;;;;;;;;;;;2.90;99.90;3.50;100353.00;;;;340047;28;89329;-84
2023/01/29 00:53:12;;;;;;;;;;;2.90;99.90;3.40;100356.00;;;;339688;28;84861;-85
2023/01/29 00:53:23;;;;;;;;;;;2.90;99.90;3.50;100353.00;;;;338645;28;91158;-84
2023/01/29 00:53:35;;;;;;;;;;;2.90;99.90;3.40;100357.00;;;;341013;28;82515;-86
2023/01/29 00:53:47;;;;;;;;;;;2.90;99.90;3.40;100360.00;;;;340849;28;89143;-85
2023/01/29 00:53:59;;;;;;;;;;;2.90;99.90;3.40;100353.00;;;;338720;28;83657;-84
2023/01/29 00:54:11;;;;;;;;;;;2.90;99.90;3.40;100348.00;;;;338919;28;88073;-85
2023/01/29 00:54:22;;;;;;;;;;;2.90;99.90;3.50;100356.00;;;;340529;28;83274;-84
2023/01/29 00:54:34;;;;;;;;;;;2.90;99.90;3.50;100348.00;;;;338752;28;89489;-85
2023/01/29 00:54:46;;;;;;;;;;;2.90;99.90;3.50;100353.00;;;;337674;28;83535;-85
2023/01/29 00:54:59;;;;;;;;;;;2.90;99.90;3.50;100349.00;;;;337451;28;90173;-85
2023/01/29 00:55:10;;;;;;;;;;;2.90;99.90;3.50;100351.00;;;;337765;28;83287;-85
2023/01/29 00:55:22;;;;;;;;;;;2.90;99.90;3.50;100351.00;;;;339632;28;89164;-85
2023/01/29 00:55:34;;;;;;;;;;;2.90;99.90;3.40;100359.00;;;;340626;28;83417;-85
2023/01/29 00:55:46;;;;;;;;;;;2.90;99.90;3.40;100354.00;;;;339398;28;92149;-85
2023/01/29 00:55:57;;;;;;;;;;;2.90;99.90;3.40;100352.00;;;;337970;28;83589;-85
2023/01/29 00:56:09;;;;;;;;;;;2.90;99.90;3.40;100353.00;;;;339183;28;89358;-84
2023/01/29 00:56:21;;;;;;;;;;;2.90;99.90;3.40;100357.00;;;;337744;28;83510;-85
2023/01/29 00:56:34;;;;;;;;;;;2.90;99.90;3.40;100349.00;;;;336348;28;91265;-85
2023/01/29 00:56:45;;;;;;;;;;;2.90;99.90;3.50;100354.00;;;;339375;28;83348;-85
2023/01/29 00:56:57;;;;;;;;;;;2.90;99.90;3.40;100352.00;;;;337410;28;90100;-85
2023/01/29 00:57:09;;;;;;;;;;;2.80;99.90;3.40;100366.00;;;;339142;28;83593;-85
2023/01/29 00:57:22;;;;;;;;;;;2.90;99.90;3.40;100359.00;;;;337189;28;88037;-85
2023/01/29 00:57:34;;;;;;;;;;;2.90;99.90;3.50;100358.00;;;;337907;28;83524;-85
2023/01/29 00:57:46;;;;;;;;;;;2.90;99.90;3.40;100348.00;;;;337497;28;89481;-85
2023/01/29 00:57:57;;;;;;;;;;;2.90;99.90;3.40;100355.00;;;;337854;28;83396;-85
2023/01/29 00:58:09;;;;;;;;;;;2.90;99.90;3.40;100354.00;;;;334891;29;89100;-85
2023/01/29 00:58:26;;;;;;;;;;;2.90;99.90;3.40;100349.00;;;;338391;28;83458;-84
2023/01/29 00:58:38;;;;;;;;;;;2.80;99.90;3.40;100348.00;;;;338975;28;88088;-85
2023/01/29 00:58:50;;;;;;;;;;;2.90;99.90;3.40;100356.00;;;;338830;28;84336;-84
2023/01/29 00:59:03;;;;;;;;;;;2.80;99.90;3.50;100356.00;;;;337728;28;89695;-85
2023/01/29 00:59:14;;;;;;;;;;;2.80;99.90;3.40;100354.00;;;;336450;28;85269;-84
2023/01/29 00:59:26;;;;;;;;;;;2.80;99.90;3.40;100355.00;;;;334667;29;92093;-85
2023/01/29 00:59:38;;;;;;;;;;;2.80;99.90;3.40;100356.00;;;;335411;29;83313;-85
2023/01/29 00:59:50;;;;;;;;;;;2.80;99.90;3.50;100354.00;;;;333530;29;88863;-84
2023/01/29 01:00:03;;;;;;;;;;;2.90;99.90;3.50;100360.00;;;;337666;28;83693;-84
2023/01/29 01:00:16;;;;;;;;;;;2.80;99.90;3.50;100355.00;;;;334342;29;91667;-85
2023/01/29 01:00:28;;;;;;;;;;;2.90;99.90;3.50;100351.00;;;;335127;29;82390;-84
2023/01/29 01:00:40;;;;;;;;;;;2.90;99.90;3.50;100355.00;;;;334802;29;92115;-84
2023/01/29 01:00:53;;;;;;;;;;;2.80;99.90;3.40;100360.00;;;;337246;28;83316;-85
2023/01/29 01:01:05;;;;;;;;;;;2.90;99.90;3.50;100350.00;;;;337294;28;92512;-85
2023/01/29 01:03:04;;;;;;;;;;;2.90;99.90;3.50;100352.00;;;;337387;28;82632;-85
2023/01/29 01:03:05;;;;;;;;;;;2.90;99.90;3.50;100352.00;;;;340186;28;89136;-85
2023/01/29 01:03:16;;;;;;;;;;;2.90;99.90;3.40;100353.00;;;;340280;28;83459;-85
2023/01/29 01:03:28;;;;;;;;;;;2.90;99.90;3.40;100357.00;;;;340992;28;88104;-85
2023/01/29 01:03:41;;;;;;;;;;;2.80;99.90;3.40;100363.00;;;;340107;28;83293;-85
2023/01/29 01:03:52;;;;;;;;;;;2.80;99.90;3.40;100352.00;;;;339197;28;92229;-84
2023/01/29 01:04:05;;;;;;;;;;;2.80;99.90;3.40;100357.00;;;;338969;28;83491;-85
2023/01/29 01:04:16;;;;;;;;;;;2.90;99.90;3.40;100352.00;;;;336909;28;93255;-84
2023/01/29 01:04:28;;;;;;;;;;;2.80;99.90;3.40;100355.00;;;;338738;28;82488;-85
2023/01/29 01:04:40;;;;;;;;;;;2.90;99.90;3.40;100348.00;;;;335895;28;92209;-85
2023/01/29 01:04:52;;;;;;;;;;;2.90;99.90;3.40;100359.00;;;;339050;28;83517;-85
2023/01/29 01:05:09;;;;;;;;;;;2.90;99.90;3.40;100354.00;;;;338685;28;91999;-85
2023/01/29 01:05:20;;;;;;;;;;;2.90;99.90;3.30;100363.00;;;;337461;28;85293;-85
2023/01/29 01:05:32;;;;;;;;;;;2.80;99.90;3.40;100359.00;;;;334904;28;92539;-85
2023/01/29 01:05:44;;;;;;;;;;;2.80;99.90;3.40;100362.00;;;;338860;28;82318;-84
2023/01/29 01:06:05;;;;;;;;;;;2.80;99.90;3.40;100357.00;;;;338617;28;91093;-84
2023/01/29 01:06:17;;;;;;;;;;;2.80;99.90;3.30;100357.00;;;;340113;28;83554;-85
2023/01/29 01:06:28;;;;;;;;;;;2.80;99.90;3.40;100361.00;;;;338687;28;90007;-85
2023/01/29 01:06:40;;;;;;;;;;;2.80;99.90;3.30;100355.00;;;;340650;28;83326;-84
2023/01/29 01:06:52;;;;;;;;;;;2.80;99.90;3.30;100351.00;;;;339518;28;92224;-85
2023/01/29 01:07:04;;;;;;;;;;;2.80;99.90;3.30;100353.00;;;;340455;28;83369;-84
2023/01/29 01:07:16;;;;;;;;;;;2.80;99.90;3.40;100351.00;;;;338168;28;92192;-85
2023/01/29 01:07:29;;;;;;;;;;;2.80;99.90;3.40;100347.00;;;;339228;28;82310;-85
2023/01/29 01:07:41;;;;;;;;;;;2.80;99.90;3.40;100354.00;;;;338261;28;91101;-85
2023/01/29 01:07:54;;;;;;;;;;;2.80;99.90;3.40;100351.00;;;;339208;28;83345;-84
2023/01/29 01:10:19;;;;;;;;;;;2.80;99.90;3.40;100348.00;;;;335381;28;88421;-84
2023/01/29 01:10:19;;;;;;;;;;;2.80;99.90;3.30;100352.00;;;;338689;28;89814;-85
2023/01/29 01:10:32;;;;;;;;;;;2.70;99.90;3.30;100352.00;;;;337698;28;83543;-84
2023/01/29 01:10:43;;;;;;;;;;;2.70;99.90;3.30;100351.00;;;;338813;28;89482;-84
2023/01/29 01:11:02;;;;;;;;;;;2.70;99.90;3.30;100355.00;;;;339256;28;82543;-84
2023/01/29 01:11:13;;;;;;;;;;;2.70;99.90;3.30;100351.00;;;;336683;28;89244;-84